sensor_id;sensor_type;location;lat;lon;timestamp;P1;durP1;ratioP1;P2;durP2;ratioP2
4232;SDS011;2130;48.472;11.934;2022-08-01T00:00:06;67.90;;;3.57;;
4232;SDS011;2130;48.472;11.934;2022-08-01T00:02:36;66.37;;;3.40;;
4232;SDS011;2130;48.472;11.934;2022-08-01T00:05:06;66.57;;;3.30;;
4232;SDS011;2130;48.472;11.934;2022-08-01T00:07:35;66.10;;;3.57;;
4232;SDS011;2130;48.472;11.934;2022-08-01T00:10:04;67.00;;;3.77;;
4232;SDS011;2130;48.472;11.934;2022-08-01T00:12:34;69.37;;;4.30;;
4232;SDS011;2130;48.472;11.934;2022-08-01T00:15:04;66.63;;;3.70;;
4232;SDS011;2130;48.472;11.934;2022-08-01T00:17:33;66.37;;;3.30;;
4232;SDS011;2130;48.472;11.934;2022-08-01T00:20:02;67.10;;;3.63;;
4232;SDS011;2130;48.472;11.934;2022-08-01T00:22:33;66.63;;;3.70;;
4232;SDS011;2130;48.472;11.934;2022-08-01T00:25:02;67.20;;;3.90;;
4232;SDS011;2130;48.472;11.934;2022-08-01T00:27:31;66.30;;;3.47;;
4232;SDS011;2130;48.472;11.934;2022-08-01T00:30:05;67.60;;;4.20;;
4232;SDS011;2130;48.472;11.934;2022-08-01T00:32:39;68.47;;;3.67;;
4232;SDS011;2130;48.472;11.934;2022-08-01T00:35:08;66.10;;;3.60;;
4232;SDS011;2130;48.472;11.934;2022-08-01T00:37:36;66.13;;;3.30;;
4232;SDS011;2130;48.472;11.934;2022-08-01T00:40:05;66.70;;;3.67;;
4232;SDS011;2130;48.472;11.934;2022-08-01T00:42:34;67.63;;;3.80;;
4232;SDS011;2130;48.472;11.934;2022-08-01T00:45:10;66.07;;;3.60;;
4232;SDS011;2130;48.472;11.934;2022-08-01T00:47:38;65.83;;;3.20;;
4232;SDS011;2130;48.472;11.934;2022-08-01T00:50:07;66.00;;;3.47;;
4232;SDS011;2130;48.472;11.934;2022-08-01T00:52:36;66.50;;;3.40;;
4232;SDS011;2130;48.472;11.934;2022-08-01T00:55:05;66.37;;;3.70;;
4232;SDS011;2130;48.472;11.934;2022-08-01T00:57:38;66.27;;;3.37;;
4232;SDS011;2130;48.472;11.934;2022-08-01T01:00:28;66.50;;;3.93;;
4232;SDS011;2130;48.472;11.934;2022-08-01T01:03:00;66.50;;;3.80;;
4232;SDS011;2130;48.472;11.934;2022-08-01T01:05:28;66.37;;;3.33;;
4232;SDS011;2130;48.472;11.934;2022-08-01T01:08:04;66.17;;;3.60;;
4232;SDS011;2130;48.472;11.934;2022-08-01T01:10:37;66.07;;;3.80;;
4232;SDS011;2130;48.472;11.934;2022-08-01T01:13:10;66.87;;;3.80;;
4232;SDS011;2130;48.472;11.934;2022-08-01T01:15:43;67.33;;;4.20;;
4232;SDS011;2130;48.472;11.934;2022-08-01T01:18:15;67.27;;;3.80;;
4232;SDS011;2130;48.472;11.934;2022-08-01T01:20:45;66.57;;;3.63;;
4232;SDS011;2130;48.472;11.934;2022-08-01T01:23:24;67.00;;;4.10;;
4232;SDS011;2130;48.472;11.934;2022-08-01T01:26:10;66.50;;;4.10;;
4232;SDS011;2130;48.472;11.934;2022-08-01T01:28:54;68.00;;;4.20;;
4232;SDS011;2130;48.472;11.934;2022-08-01T01:31:25;66.60;;;4.03;;
4232;SDS011;2130;48.472;11.934;2022-08-01T01:33:53;66.50;;;3.80;;
4232;SDS011;2130;48.472;11.934;2022-08-01T01:36:23;66.97;;;4.20;;
4232;SDS011;2130;48.472;11.934;2022-08-01T01:38:52;66.70;;;3.77;;
4232;SDS011;2130;48.472;11.934;2022-08-01T01:41:21;67.20;;;3.93;;
4232;SDS011;2130;48.472;11.934;2022-08-01T01:43:49;66.77;;;4.10;;
4232;SDS011;2130;48.472;11.934;2022-08-01T01:46:21;66.53;;;3.80;;
4232;SDS011;2130;48.472;11.934;2022-08-01T01:48:54;66.60;;;4.00;;
4232;SDS011;2130;48.472;11.934;2022-08-01T01:51:24;66.17;;;3.90;;
4232;SDS011;2130;48.472;11.934;2022-08-01T01:53:53;67.37;;;4.40;;
4232;SDS011;2130;48.472;11.934;2022-08-01T01:56:22;66.57;;;4.23;;
4232;SDS011;2130;48.472;11.934;2022-08-01T01:58:52;66.67;;;4.17;;
4232;SDS011;2130;48.472;11.934;2022-08-01T02:01:24;66.07;;;4.03;;
4232;SDS011;2130;48.472;11.934;2022-08-01T02:04:14;66.33;;;3.93;;
4232;SDS011;2130;48.472;11.934;2022-08-01T02:06:43;66.87;;;4.10;;
4232;SDS011;2130;48.472;11.934;2022-08-01T02:09:14;67.27;;;4.30;;
4232;SDS011;2130;48.472;11.934;2022-08-01T02:11:45;66.60;;;4.20;;
4232;SDS011;2130;48.472;11.934;2022-08-01T02:14:34;68.27;;;4.87;;
4232;SDS011;2130;48.472;11.934;2022-08-01T02:17:04;66.63;;;4.13;;
4232;SDS011;2130;48.472;11.934;2022-08-01T02:19:32;66.40;;;4.17;;
4232;SDS011;2130;48.472;11.934;2022-08-01T02:22:04;65.47;;;4.07;;
4232;SDS011;2130;48.472;11.934;2022-08-01T02:24:37;66.93;;;4.33;;
4232;SDS011;2130;48.472;11.934;2022-08-01T02:27:08;66.80;;;4.20;;
4232;SDS011;2130;48.472;11.934;2022-08-01T02:29:39;67.70;;;4.43;;
4232;SDS011;2130;48.472;11.934;2022-08-01T02:32:12;66.37;;;4.30;;
4232;SDS011;2130;48.472;11.934;2022-08-01T02:34:42;67.07;;;4.17;;
4232;SDS011;2130;48.472;11.934;2022-08-01T02:37:12;66.43;;;4.07;;
4232;SDS011;2130;48.472;11.934;2022-08-01T02:39:40;67.00;;;4.27;;
4232;SDS011;2130;48.472;11.934;2022-08-01T02:42:08;66.23;;;3.70;;
4232;SDS011;2130;48.472;11.934;2022-08-01T02:44:39;66.33;;;4.23;;
4232;SDS011;2130;48.472;11.934;2022-08-01T02:47:09;66.57;;;4.10;;
4232;SDS011;2130;48.472;11.934;2022-08-01T02:49:40;68.60;;;4.00;;
4232;SDS011;2130;48.472;11.934;2022-08-01T02:52:19;67.00;;;4.20;;
4232;SDS011;2130;48.472;11.934;2022-08-01T02:54:48;66.23;;;4.20;;
4232;SDS011;2130;48.472;11.934;2022-08-01T02:57:17;65.50;;;4.00;;
4232;SDS011;2130;48.472;11.934;2022-08-01T02:59:46;66.50;;;3.90;;
4232;SDS011;2130;48.472;11.934;2022-08-01T03:02:15;65.87;;;3.90;;
4232;SDS011;2130;48.472;11.934;2022-08-01T03:04:46;66.47;;;4.00;;
4232;SDS011;2130;48.472;11.934;2022-08-01T03:07:22;67.87;;;4.20;;
4232;SDS011;2130;48.472;11.934;2022-08-01T03:09:59;67.17;;;4.30;;
4232;SDS011;2130;48.472;11.934;2022-08-01T03:12:29;67.20;;;4.10;;
4232;SDS011;2130;48.472;11.934;2022-08-01T03:15:00;66.87;;;4.37;;
4232;SDS011;2130;48.472;11.934;2022-08-01T03:17:30;66.30;;;4.00;;
4232;SDS011;2130;48.472;11.934;2022-08-01T03:20:01;66.97;;;4.10;;
4232;SDS011;2130;48.472;11.934;2022-08-01T03:22:30;66.50;;;3.73;;
4232;SDS011;2130;48.472;11.934;2022-08-01T03:24:59;66.10;;;3.90;;
4232;SDS011;2130;48.472;11.934;2022-08-01T03:27:29;69.90;;;4.17;;
4232;SDS011;2130;48.472;11.934;2022-08-01T03:29:57;67.30;;;3.93;;
4232;SDS011;2130;48.472;11.934;2022-08-01T03:32:26;66.27;;;4.00;;
4232;SDS011;2130;48.472;11.934;2022-08-01T03:34:54;65.93;;;4.10;;
4232;SDS011;2130;48.472;11.934;2022-08-01T03:37:25;67.70;;;4.47;;
4232;SDS011;2130;48.472;11.934;2022-08-01T03:39:55;66.67;;;4.13;;
4232;SDS011;2130;48.472;11.934;2022-08-01T03:42:27;66.00;;;4.10;;
4232;SDS011;2130;48.472;11.934;2022-08-01T03:45:00;65.60;;;3.90;;
4232;SDS011;2130;48.472;11.934;2022-08-01T03:47:31;68.27;;;4.53;;
4232;SDS011;2130;48.472;11.934;2022-08-01T03:50:10;65.97;;;3.67;;
4232;SDS011;2130;48.472;11.934;2022-08-01T03:52:41;66.40;;;4.17;;
4232;SDS011;2130;48.472;11.934;2022-08-01T03:55:11;66.27;;;3.57;;
4232;SDS011;2130;48.472;11.934;2022-08-01T03:57:40;66.60;;;3.90;;
4232;SDS011;2130;48.472;11.934;2022-08-01T04:00:09;66.07;;;3.63;;
4232;SDS011;2130;48.472;11.934;2022-08-01T04:02:38;65.47;;;3.97;;
4232;SDS011;2130;48.472;11.934;2022-08-01T04:05:06;66.63;;;4.00;;
4232;SDS011;2130;48.472;11.934;2022-08-01T04:07:35;66.17;;;4.00;;
4232;SDS011;2130;48.472;11.934;2022-08-01T04:10:07;67.13;;;3.93;;
4232;SDS011;2130;48.472;11.934;2022-08-01T04:12:35;66.57;;;4.37;;
4232;SDS011;2130;48.472;11.934;2022-08-01T04:15:04;66.30;;;4.00;;
4232;SDS011;2130;48.472;11.934;2022-08-01T04:17:33;65.57;;;3.63;;
4232;SDS011;2130;48.472;11.934;2022-08-01T04:20:01;66.50;;;4.10;;
4232;SDS011;2130;48.472;11.934;2022-08-01T04:22:29;66.17;;;4.10;;
4232;SDS011;2130;48.472;11.934;2022-08-01T04:25:03;66.17;;;4.10;;
4232;SDS011;2130;48.472;11.934;2022-08-01T04:27:37;65.57;;;3.60;;
4232;SDS011;2130;48.472;11.934;2022-08-01T04:30:17;66.40;;;4.00;;
4232;SDS011;2130;48.472;11.934;2022-08-01T04:32:47;65.50;;;3.83;;
4232;SDS011;2130;48.472;11.934;2022-08-01T04:35:17;65.97;;;3.93;;
4232;SDS011;2130;48.472;11.934;2022-08-01T04:38:07;66.93;;;3.83;;
4232;SDS011;2130;48.472;11.934;2022-08-01T04:40:37;65.43;;;4.00;;
4232;SDS011;2130;48.472;11.934;2022-08-01T04:43:05;67.43;;;3.97;;
4232;SDS011;2130;48.472;11.934;2022-08-01T04:45:34;66.37;;;4.23;;
4232;SDS011;2130;48.472;11.934;2022-08-01T04:48:03;66.20;;;3.80;;
4232;SDS011;2130;48.472;11.934;2022-08-01T04:50:34;66.80;;;4.27;;
4232;SDS011;2130;48.472;11.934;2022-08-01T04:53:02;66.30;;;3.77;;
4232;SDS011;2130;48.472;11.934;2022-08-01T04:55:31;66.77;;;4.10;;
4232;SDS011;2130;48.472;11.934;2022-08-01T04:58:01;66.37;;;3.90;;
4232;SDS011;2130;48.472;11.934;2022-08-01T05:00:29;66.87;;;3.87;;
4232;SDS011;2130;48.472;11.934;2022-08-01T05:02:57;66.90;;;3.80;;
4232;SDS011;2130;48.472;11.934;2022-08-01T05:05:25;66.37;;;3.77;;
4232;SDS011;2130;48.472;11.934;2022-08-01T05:07:53;66.20;;;4.13;;
4232;SDS011;2130;48.472;11.934;2022-08-01T05:10:22;67.47;;;3.70;;
4232;SDS011;2130;48.472;11.934;2022-08-01T05:12:50;67.63;;;4.20;;
4232;SDS011;2130;48.472;11.934;2022-08-01T05:15:20;66.60;;;4.13;;
4232;SDS011;2130;48.472;11.934;2022-08-01T05:17:48;66.30;;;3.57;;
4232;SDS011;2130;48.472;11.934;2022-08-01T05:20:16;66.77;;;3.80;;
4232;SDS011;2130;48.472;11.934;2022-08-01T05:22:44;66.20;;;3.50;;
4232;SDS011;2130;48.472;11.934;2022-08-01T05:25:12;66.47;;;3.60;;
4232;SDS011;2130;48.472;11.934;2022-08-01T05:27:52;66.70;;;3.53;;
4232;SDS011;2130;48.472;11.934;2022-08-01T05:30:21;66.77;;;3.90;;
4232;SDS011;2130;48.472;11.934;2022-08-01T05:32:49;66.10;;;3.97;;
4232;SDS011;2130;48.472;11.934;2022-08-01T05:35:18;66.47;;;3.93;;
4232;SDS011;2130;48.472;11.934;2022-08-01T05:37:46;66.03;;;3.80;;
4232;SDS011;2130;48.472;11.934;2022-08-01T05:40:14;66.00;;;3.70;;
4232;SDS011;2130;48.472;11.934;2022-08-01T05:42:42;70.57;;;4.30;;
4232;SDS011;2130;48.472;11.934;2022-08-01T05:45:10;66.10;;;3.90;;
4232;SDS011;2130;48.472;11.934;2022-08-01T05:47:40;66.40;;;3.70;;
4232;SDS011;2130;48.472;11.934;2022-08-01T05:50:08;67.00;;;3.80;;
4232;SDS011;2130;48.472;11.934;2022-08-01T05:52:37;66.97;;;4.30;;
4232;SDS011;2130;48.472;11.934;2022-08-01T05:55:05;67.60;;;4.20;;
4232;SDS011;2130;48.472;11.934;2022-08-01T05:57:34;68.77;;;4.63;;
4232;SDS011;2130;48.472;11.934;2022-08-01T06:00:06;66.87;;;4.13;;
4232;SDS011;2130;48.472;11.934;2022-08-01T06:02:43;66.67;;;4.00;;
4232;SDS011;2130;48.472;11.934;2022-08-01T06:05:11;66.50;;;3.93;;
4232;SDS011;2130;48.472;11.934;2022-08-01T06:07:39;68.17;;;4.50;;
4232;SDS011;2130;48.472;11.934;2022-08-01T06:10:08;66.93;;;3.90;;
4232;SDS011;2130;48.472;11.934;2022-08-01T06:12:36;67.20;;;4.10;;
4232;SDS011;2130;48.472;11.934;2022-08-01T06:15:05;68.10;;;4.40;;
4232;SDS011;2130;48.472;11.934;2022-08-01T06:17:34;67.90;;;4.10;;
4232;SDS011;2130;48.472;11.934;2022-08-01T06:20:04;67.50;;;4.10;;
4232;SDS011;2130;48.472;11.934;2022-08-01T06:22:33;67.27;;;4.03;;
4232;SDS011;2130;48.472;11.934;2022-08-01T06:25:02;67.90;;;4.00;;
4232;SDS011;2130;48.472;11.934;2022-08-01T06:27:30;67.57;;;4.27;;
4232;SDS011;2130;48.472;11.934;2022-08-01T06:30:01;66.33;;;3.63;;
4232;SDS011;2130;48.472;11.934;2022-08-01T06:32:30;68.40;;;3.97;;
4232;SDS011;2130;48.472;11.934;2022-08-01T06:34:58;67.10;;;3.97;;
4232;SDS011;2130;48.472;11.934;2022-08-01T06:37:29;68.17;;;4.13;;
4232;SDS011;2130;48.472;11.934;2022-08-01T06:39:59;66.77;;;3.63;;
4232;SDS011;2130;48.472;11.934;2022-08-01T06:42:28;67.20;;;3.83;;
4232;SDS011;2130;48.472;11.934;2022-08-01T06:44:58;67.47;;;4.03;;
4232;SDS011;2130;48.472;11.934;2022-08-01T06:47:26;68.00;;;4.00;;
4232;SDS011;2130;48.472;11.934;2022-08-01T06:49:54;67.20;;;3.60;;
4232;SDS011;2130;48.472;11.934;2022-08-01T06:52:22;67.23;;;3.90;;
4232;SDS011;2130;48.472;11.934;2022-08-01T06:54:52;67.63;;;3.70;;
4232;SDS011;2130;48.472;11.934;2022-08-01T06:57:20;68.47;;;3.80;;
4232;SDS011;2130;48.472;11.934;2022-08-01T06:59:48;66.17;;;3.83;;
4232;SDS011;2130;48.472;11.934;2022-08-01T07:02:20;67.30;;;4.10;;
4232;SDS011;2130;48.472;11.934;2022-08-01T07:04:48;67.40;;;3.70;;
4232;SDS011;2130;48.472;11.934;2022-08-01T07:07:16;67.77;;;4.30;;
4232;SDS011;2130;48.472;11.934;2022-08-01T07:09:44;67.27;;;3.83;;
4232;SDS011;2130;48.472;11.934;2022-08-01T07:12:13;67.67;;;3.93;;
4232;SDS011;2130;48.472;11.934;2022-08-01T07:14:42;67.50;;;4.30;;
4232;SDS011;2130;48.472;11.934;2022-08-01T07:17:10;66.87;;;3.80;;
4232;SDS011;2130;48.472;11.934;2022-08-01T07:19:38;66.67;;;4.00;;
4232;SDS011;2130;48.472;11.934;2022-08-01T07:22:08;66.70;;;3.87;;
4232;SDS011;2130;48.472;11.934;2022-08-01T07:24:36;68.80;;;4.17;;
4232;SDS011;2130;48.472;11.934;2022-08-01T07:27:11;66.03;;;3.83;;
4232;SDS011;2130;48.472;11.934;2022-08-01T07:29:51;66.10;;;3.87;;
4232;SDS011;2130;48.472;11.934;2022-08-01T07:32:19;66.90;;;4.00;;
4232;SDS011;2130;48.472;11.934;2022-08-01T07:34:47;67.47;;;3.93;;
4232;SDS011;2130;48.472;11.934;2022-08-01T07:37:15;66.90;;;4.13;;
4232;SDS011;2130;48.472;11.934;2022-08-01T07:40:04;65.83;;;3.80;;
4232;SDS011;2130;48.472;11.934;2022-08-01T07:42:32;67.27;;;4.10;;
4232;SDS011;2130;48.472;11.934;2022-08-01T07:45:02;66.87;;;3.60;;
4232;SDS011;2130;48.472;11.934;2022-08-01T07:47:31;67.67;;;3.77;;
4232;SDS011;2130;48.472;11.934;2022-08-01T07:49:59;67.10;;;3.67;;
4232;SDS011;2130;48.472;11.934;2022-08-01T07:52:28;68.47;;;3.70;;
4232;SDS011;2130;48.472;11.934;2022-08-01T07:54:56;66.70;;;3.20;;
4232;SDS011;2130;48.472;11.934;2022-08-01T07:57:25;67.20;;;3.43;;
4232;SDS011;2130;48.472;11.934;2022-08-01T07:59:53;67.30;;;3.80;;
4232;SDS011;2130;48.472;11.934;2022-08-01T08:02:23;67.60;;;3.67;;
4232;SDS011;2130;48.472;11.934;2022-08-01T08:04:51;67.57;;;3.27;;
4232;SDS011;2130;48.472;11.934;2022-08-01T08:07:19;66.10;;;2.93;;
4232;SDS011;2130;48.472;11.934;2022-08-01T08:09:47;66.23;;;2.80;;
4232;SDS011;2130;48.472;11.934;2022-08-01T08:12:18;70.60;;;3.73;;
4232;SDS011;2130;48.472;11.934;2022-08-01T08:14:55;68.03;;;3.50;;
4232;SDS011;2130;48.472;11.934;2022-08-01T08:17:26;67.67;;;3.40;;
4232;SDS011;2130;48.472;11.934;2022-08-01T08:20:01;66.73;;;3.47;;
4232;SDS011;2130;48.472;11.934;2022-08-01T08:22:32;66.77;;;3.57;;
4232;SDS011;2130;48.472;11.934;2022-08-01T08:25:00;67.20;;;3.30;;
4232;SDS011;2130;48.472;11.934;2022-08-01T08:27:28;66.97;;;3.13;;
4232;SDS011;2130;48.472;11.934;2022-08-01T08:29:56;65.90;;;3.00;;
4232;SDS011;2130;48.472;11.934;2022-08-01T08:32:25;66.90;;;3.40;;
4232;SDS011;2130;48.472;11.934;2022-08-01T08:34:53;66.93;;;3.23;;
4232;SDS011;2130;48.472;11.934;2022-08-01T08:37:22;66.70;;;3.07;;
4232;SDS011;2130;48.472;11.934;2022-08-01T08:39:56;67.17;;;3.20;;
4232;SDS011;2130;48.472;11.934;2022-08-01T08:42:25;67.07;;;3.30;;
4232;SDS011;2130;48.472;11.934;2022-08-01T08:44:53;67.27;;;3.40;;
4232;SDS011;2130;48.472;11.934;2022-08-01T08:47:22;67.77;;;3.50;;
4232;SDS011;2130;48.472;11.934;2022-08-01T08:49:54;66.87;;;3.30;;
4232;SDS011;2130;48.472;11.934;2022-08-01T08:52:23;67.20;;;3.07;;
4232;SDS011;2130;48.472;11.934;2022-08-01T08:54:51;67.03;;;3.23;;
4232;SDS011;2130;48.472;11.934;2022-08-01T08:57:20;67.97;;;3.20;;
4232;SDS011;2130;48.472;11.934;2022-08-01T08:59:49;66.63;;;2.97;;
4232;SDS011;2130;48.472;11.934;2022-08-01T09:02:20;66.93;;;3.20;;
4232;SDS011;2130;48.472;11.934;2022-08-01T09:04:49;68.10;;;2.83;;
4232;SDS011;2130;48.472;11.934;2022-08-01T09:07:18;69.03;;;3.60;;
4232;SDS011;2130;48.472;11.934;2022-08-01T09:09:47;67.23;;;3.10;;
4232;SDS011;2130;48.472;11.934;2022-08-01T09:12:17;67.03;;;3.13;;
4232;SDS011;2130;48.472;11.934;2022-08-01T09:14:47;67.60;;;2.90;;
4232;SDS011;2130;48.472;11.934;2022-08-01T09:17:19;67.60;;;3.00;;
4232;SDS011;2130;48.472;11.934;2022-08-01T09:19:49;67.80;;;3.30;;
4232;SDS011;2130;48.472;11.934;2022-08-01T09:22:22;67.97;;;2.80;;
4232;SDS011;2130;48.472;11.934;2022-08-01T09:24:57;68.67;;;3.20;;
4232;SDS011;2130;48.472;11.934;2022-08-01T09:27:27;67.40;;;2.97;;
4232;SDS011;2130;48.472;11.934;2022-08-01T09:30:06;67.90;;;3.10;;
4232;SDS011;2130;48.472;11.934;2022-08-01T09:32:37;67.77;;;2.93;;
4232;SDS011;2130;48.472;11.934;2022-08-01T09:35:24;67.97;;;3.10;;
4232;SDS011;2130;48.472;11.934;2022-08-01T09:38:12;69.20;;;2.80;;
4232;SDS011;2130;48.472;11.934;2022-08-01T09:40:48;68.80;;;3.10;;
4232;SDS011;2130;48.472;11.934;2022-08-01T09:43:19;66.97;;;2.67;;
4232;SDS011;2130;48.472;11.934;2022-08-01T09:45:48;67.33;;;2.50;;
4232;SDS011;2130;48.472;11.934;2022-08-01T09:48:19;66.77;;;2.50;;
4232;SDS011;2130;48.472;11.934;2022-08-01T09:50:56;69.63;;;3.00;;
4232;SDS011;2130;48.472;11.934;2022-08-01T09:53:43;67.60;;;2.70;;
4232;SDS011;2130;48.472;11.934;2022-08-01T09:56:19;67.27;;;2.73;;
4232;SDS011;2130;48.472;11.934;2022-08-01T09:58:51;67.10;;;2.63;;
4232;SDS011;2130;48.472;11.934;2022-08-01T10:01:27;66.43;;;2.60;;
4232;SDS011;2130;48.472;11.934;2022-08-01T10:04:07;66.30;;;2.20;;
4232;SDS011;2130;48.472;11.934;2022-08-01T10:06:37;66.97;;;2.87;;
4232;SDS011;2130;48.472;11.934;2022-08-01T10:09:08;67.47;;;3.00;;
4232;SDS011;2130;48.472;11.934;2022-08-01T10:11:40;66.77;;;2.40;;
4232;SDS011;2130;48.472;11.934;2022-08-01T10:14:10;67.37;;;2.73;;
4232;SDS011;2130;48.472;11.934;2022-08-01T10:16:44;66.70;;;2.93;;
4232;SDS011;2130;48.472;11.934;2022-08-01T10:19:30;67.37;;;2.50;;
4232;SDS011;2130;48.472;11.934;2022-08-01T10:21:59;67.17;;;2.60;;
4232;SDS011;2130;48.472;11.934;2022-08-01T10:24:29;66.93;;;2.93;;
4232;SDS011;2130;48.472;11.934;2022-08-01T10:27:01;66.53;;;2.40;;
4232;SDS011;2130;48.472;11.934;2022-08-01T10:29:36;67.60;;;2.50;;
4232;SDS011;2130;48.472;11.934;2022-08-01T10:32:27;66.47;;;2.27;;
4232;SDS011;2130;48.472;11.934;2022-08-01T10:34:56;66.57;;;2.50;;
4232;SDS011;2130;48.472;11.934;2022-08-01T10:37:32;67.10;;;2.30;;
4232;SDS011;2130;48.472;11.934;2022-08-01T10:40:19;66.30;;;2.40;;
4232;SDS011;2130;48.472;11.934;2022-08-01T10:42:57;67.80;;;2.60;;
4232;SDS011;2130;48.472;11.934;2022-08-01T10:45:25;71.10;;;5.00;;
4232;SDS011;2130;48.472;11.934;2022-08-01T10:47:57;69.03;;;2.30;;
4232;SDS011;2130;48.472;11.934;2022-08-01T10:50:31;68.27;;;2.60;;
4232;SDS011;2130;48.472;11.934;2022-08-01T10:53:09;67.10;;;2.50;;
4232;SDS011;2130;48.472;11.934;2022-08-01T10:55:52;67.20;;;2.60;;
4232;SDS011;2130;48.472;11.934;2022-08-01T10:58:28;67.57;;;2.90;;
4232;SDS011;2130;48.472;11.934;2022-08-01T11:01:19;67.50;;;2.63;;
4232;SDS011;2130;48.472;11.934;2022-08-01T11:03:58;67.27;;;2.60;;
4232;SDS011;2130;48.472;11.934;2022-08-01T11:09:37;67.37;;;2.70;;
4232;SDS011;2130;48.472;11.934;2022-08-01T11:12:09;67.17;;;2.60;;
4232;SDS011;2130;48.472;11.934;2022-08-01T11:18:00;67.07;;;2.40;;
4232;SDS011;2130;48.472;11.934;2022-08-01T11:20:32;67.17;;;2.60;;
4232;SDS011;2130;48.472;11.934;2022-08-01T11:26:08;67.17;;;2.67;;
4232;SDS011;2130;48.472;11.934;2022-08-01T11:28:38;68.07;;;2.80;;
4232;SDS011;2130;48.472;11.934;2022-08-01T11:31:25;68.63;;;2.60;;
4232;SDS011;2130;48.472;11.934;2022-08-01T11:34:02;69.77;;;2.53;;
4232;SDS011;2130;48.472;11.934;2022-08-01T11:36:30;66.93;;;2.50;;
4232;SDS011;2130;48.472;11.934;2022-08-01T11:39:19;66.67;;;2.17;;
4232;SDS011;2130;48.472;11.934;2022-08-01T11:41:47;67.50;;;2.57;;
4232;SDS011;2130;48.472;11.934;2022-08-01T11:44:18;67.07;;;2.40;;
4232;SDS011;2130;48.472;11.934;2022-08-01T11:46:54;66.27;;;2.23;;
4232;SDS011;2130;48.472;11.934;2022-08-01T11:49:44;66.97;;;2.47;;
4232;SDS011;2130;48.472;11.934;2022-08-01T11:52:16;66.93;;;2.30;;
4232;SDS011;2130;48.472;11.934;2022-08-01T11:54:47;66.97;;;2.23;;
4232;SDS011;2130;48.472;11.934;2022-08-01T11:57:18;67.57;;;2.33;;
4232;SDS011;2130;48.472;11.934;2022-08-01T11:59:51;67.50;;;2.60;;
4232;SDS011;2130;48.472;11.934;2022-08-01T12:02:38;67.87;;;2.70;;
4232;SDS011;2130;48.472;11.934;2022-08-01T12:05:08;66.80;;;2.50;;
4232;SDS011;2130;48.472;11.934;2022-08-01T12:07:40;66.73;;;2.30;;
4232;SDS011;2130;48.472;11.934;2022-08-01T12:10:10;67.60;;;2.90;;
4232;SDS011;2130;48.472;11.934;2022-08-01T12:12:42;67.17;;;2.40;;
4232;SDS011;2130;48.472;11.934;2022-08-01T12:15:12;67.50;;;2.80;;
4232;SDS011;2130;48.472;11.934;2022-08-01T12:17:41;67.60;;;2.60;;
4232;SDS011;2130;48.472;11.934;2022-08-01T12:20:24;67.67;;;2.43;;
4232;SDS011;2130;48.472;11.934;2022-08-01T12:22:56;66.73;;;2.10;;
4232;SDS011;2130;48.472;11.934;2022-08-01T12:25:24;68.47;;;2.60;;
4232;SDS011;2130;48.472;11.934;2022-08-01T12:27:52;66.50;;;2.30;;
4232;SDS011;2130;48.472;11.934;2022-08-01T12:30:23;67.70;;;2.30;;
4232;SDS011;2130;48.472;11.934;2022-08-01T12:32:53;67.20;;;2.30;;
4232;SDS011;2130;48.472;11.934;2022-08-01T12:35:23;66.90;;;2.10;;
4232;SDS011;2130;48.472;11.934;2022-08-01T12:37:52;66.80;;;2.50;;
4232;SDS011;2130;48.472;11.934;2022-08-01T12:40:22;66.67;;;2.10;;
4232;SDS011;2130;48.472;11.934;2022-08-01T12:42:52;68.33;;;2.20;;
4232;SDS011;2130;48.472;11.934;2022-08-01T12:45:21;66.43;;;2.30;;
4232;SDS011;2130;48.472;11.934;2022-08-01T12:47:52;66.27;;;2.30;;
4232;SDS011;2130;48.472;11.934;2022-08-01T12:50:22;66.47;;;2.37;;
4232;SDS011;2130;48.472;11.934;2022-08-01T12:52:51;67.23;;;2.40;;
4232;SDS011;2130;48.472;11.934;2022-08-01T12:55:20;66.80;;;2.40;;
4232;SDS011;2130;48.472;11.934;2022-08-01T12:58:03;66.67;;;2.10;;
4232;SDS011;2130;48.472;11.934;2022-08-01T13:00:32;68.47;;;2.20;;
4232;SDS011;2130;48.472;11.934;2022-08-01T13:03:03;66.70;;;2.07;;
4232;SDS011;2130;48.472;11.934;2022-08-01T13:05:42;67.87;;;2.13;;
4232;SDS011;2130;48.472;11.934;2022-08-01T13:08:11;66.77;;;2.20;;
4232;SDS011;2130;48.472;11.934;2022-08-01T13:10:41;67.83;;;2.10;;
4232;SDS011;2130;48.472;11.934;2022-08-01T13:13:09;66.77;;;2.03;;
4232;SDS011;2130;48.472;11.934;2022-08-01T13:16:02;67.37;;;2.40;;
4232;SDS011;2130;48.472;11.934;2022-08-01T13:18:32;66.07;;;1.73;;
4232;SDS011;2130;48.472;11.934;2022-08-01T13:21:07;66.90;;;2.10;;
4232;SDS011;2130;48.472;11.934;2022-08-01T13:23:37;66.20;;;1.90;;
4232;SDS011;2130;48.472;11.934;2022-08-01T13:26:37;68.27;;;2.40;;
4232;SDS011;2130;48.472;11.934;2022-08-01T13:29:06;66.77;;;2.13;;
4232;SDS011;2130;48.472;11.934;2022-08-01T13:31:34;68.37;;;2.20;;
4232;SDS011;2130;48.472;11.934;2022-08-01T13:34:04;67.20;;;2.17;;
4232;SDS011;2130;48.472;11.934;2022-08-01T13:36:33;67.53;;;2.17;;
4232;SDS011;2130;48.472;11.934;2022-08-01T13:39:02;66.67;;;2.17;;
4232;SDS011;2130;48.472;11.934;2022-08-01T13:41:49;66.80;;;2.10;;
4232;SDS011;2130;48.472;11.934;2022-08-01T13:44:17;66.90;;;2.03;;
4232;SDS011;2130;48.472;11.934;2022-08-01T13:46:45;66.77;;;2.10;;
4232;SDS011;2130;48.472;11.934;2022-08-01T13:49:18;67.13;;;2.23;;
4232;SDS011;2130;48.472;11.934;2022-08-01T13:51:48;66.57;;;2.10;;
4232;SDS011;2130;48.472;11.934;2022-08-01T13:54:17;67.70;;;2.60;;
4232;SDS011;2130;48.472;11.934;2022-08-01T13:56:46;67.20;;;2.33;;
4232;SDS011;2130;48.472;11.934;2022-08-01T13:59:14;67.47;;;2.27;;
4232;SDS011;2130;48.472;11.934;2022-08-01T14:01:42;66.43;;;2.10;;
4232;SDS011;2130;48.472;11.934;2022-08-01T14:04:11;66.50;;;2.10;;
4232;SDS011;2130;48.472;11.934;2022-08-01T14:06:40;66.90;;;2.00;;
4232;SDS011;2130;48.472;11.934;2022-08-01T14:09:08;71.50;;;2.60;;
4232;SDS011;2130;48.472;11.934;2022-08-01T14:11:49;68.00;;;2.27;;
4232;SDS011;2130;48.472;11.934;2022-08-01T14:14:17;66.37;;;2.10;;
4232;SDS011;2130;48.472;11.934;2022-08-01T14:16:46;66.67;;;2.10;;
4232;SDS011;2130;48.472;11.934;2022-08-01T14:19:14;66.67;;;2.17;;
4232;SDS011;2130;48.472;11.934;2022-08-01T14:22:03;66.50;;;2.03;;
4232;SDS011;2130;48.472;11.934;2022-08-01T14:24:32;67.60;;;2.50;;
4232;SDS011;2130;48.472;11.934;2022-08-01T14:27:00;67.07;;;2.23;;
4232;SDS011;2130;48.472;11.934;2022-08-01T14:29:28;66.47;;;2.00;;
4232;SDS011;2130;48.472;11.934;2022-08-01T14:32:16;67.00;;;2.03;;
4232;SDS011;2130;48.472;11.934;2022-08-01T14:34:48;66.70;;;2.10;;
4232;SDS011;2130;48.472;11.934;2022-08-01T14:37:18;67.87;;;2.17;;
4232;SDS011;2130;48.472;11.934;2022-08-01T14:39:46;67.50;;;2.50;;
4232;SDS011;2130;48.472;11.934;2022-08-01T14:42:20;66.67;;;2.17;;
4232;SDS011;2130;48.472;11.934;2022-08-01T14:44:48;67.90;;;2.23;;
4232;SDS011;2130;48.472;11.934;2022-08-01T14:47:16;65.97;;;1.90;;
4232;SDS011;2130;48.472;11.934;2022-08-01T14:49:47;68.17;;;2.20;;
4232;SDS011;2130;48.472;11.934;2022-08-01T14:52:16;65.90;;;2.00;;
4232;SDS011;2130;48.472;11.934;2022-08-01T14:54:46;67.00;;;2.17;;
4232;SDS011;2130;48.472;11.934;2022-08-01T14:57:14;66.67;;;2.07;;
4232;SDS011;2130;48.472;11.934;2022-08-01T14:59:45;66.43;;;2.40;;
4232;SDS011;2130;48.472;11.934;2022-08-01T15:02:13;67.07;;;2.30;;
4232;SDS011;2130;48.472;11.934;2022-08-01T15:04:43;66.13;;;2.10;;
4232;SDS011;2130;48.472;11.934;2022-08-01T15:07:12;66.37;;;2.10;;
4232;SDS011;2130;48.472;11.934;2022-08-01T15:09:42;66.27;;;2.10;;
4232;SDS011;2130;48.472;11.934;2022-08-01T15:12:10;67.20;;;1.90;;
4232;SDS011;2130;48.472;11.934;2022-08-01T15:14:39;66.47;;;2.13;;
4232;SDS011;2130;48.472;11.934;2022-08-01T15:17:16;70.80;;;2.13;;
4232;SDS011;2130;48.472;11.934;2022-08-01T15:19:48;67.10;;;2.40;;
4232;SDS011;2130;48.472;11.934;2022-08-01T15:22:19;68.50;;;2.43;;